Terminal Aerodrome Forecast
Issued by NWS

Home | Current Version | Previous Version | Text Only | Print | Product List | Glossary On
Versions: 1 2 3 4 5 6 7 8 9 10 11 12 13 14 15 16 17 18 19
000
FTAK31 PAJN 262103 AAB
TAFASI
TAF AMD
PASI 262103Z 2621/2718 VRB03KT P6SM VCSH BKN005 OVC015
      TEMPO 2621/2624 3SM -RA BR OVC005
     FM270000 24006KT P6SM VCSH SCT015 BKN025
     FM270600 30008KT P6SM SCT025 OVC050
     FM271200 34005KT P6SM SKC=

USA.gov is the U.S. government's official web portal to all federal, state and local government web resources and services.